createdAt,value
2023-02-26T00:00:27.538Z,100405.64
2023-02-26T00:04:42.667Z,100407.17
2023-02-26T00:08:54.936Z,100408.45
2023-02-26T00:13:07.580Z,100415.77
2023-02-26T00:17:20.415Z,100423.16
2023-02-26T00:21:34.433Z,100429.23
2023-02-26T00:25:46.894Z,100437.23
2023-02-26T00:29:59.120Z,100447.11
2023-02-26T00:34:20.283Z,100448.45
2023-02-26T00:38:32.935Z,100450.33
2023-02-26T00:42:45.351Z,100463.26
2023-02-26T00:46:57.674Z,100462.64
2023-02-26T00:51:09.695Z,100466.88
2023-02-26T00:55:22.062Z,100480.08
2023-02-26T00:59:28.574Z,100488.70
2023-02-26T01:03:40.891Z,100499.77
2023-02-26T01:07:52.914Z,100509.00
2023-02-26T01:12:05.856Z,100500.66
2023-02-26T01:16:18.142Z,100502.20
2023-02-26T01:20:27.626Z,100505.90
2023-02-26T01:24:41.631Z,100514.61
2023-02-26T01:28:46.051Z,100528.96
2023-02-26T01:33:04.170Z,100541.48
2023-02-26T01:37:16.054Z,100541.67
2023-02-26T01:41:40.857Z,100559.78
2023-02-26T01:45:52.981Z,100565.69
2023-02-26T01:50:05.356Z,100567.17
2023-02-26T01:54:09.298Z,100562.97
2023-02-26T01:58:21.787Z,100567.04
2023-02-26T02:02:27.675Z,100582.56
2023-02-26T02:06:55.899Z,100585.23
2023-02-26T02:11:08.506Z,100592.58
2023-02-26T02:15:18.960Z,100594.19
2023-02-26T02:19:43.169Z,100606.05
2023-02-26T02:23:58.255Z,100628.24
2023-02-26T02:28:13.426Z,100619.45
2023-02-26T02:32:25.798Z,100622.58
2023-02-26T02:36:37.616Z,100624.04
2023-02-26T02:40:52.341Z,100633.91
2023-02-26T02:45:05.613Z,100640.19
2023-02-26T02:49:20.662Z,100649.15
2023-02-26T02:53:49.938Z,100655.83
2023-02-26T02:57:55.805Z,100661.20
2023-02-26T03:02:07.636Z,100666.09
2023-02-26T03:06:19.455Z,100672.38
2023-02-26T03:10:31.695Z,100679.63
2023-02-26T03:14:43.697Z,100685.75
2023-02-26T03:18:55.537Z,100699.80
2023-02-26T03:23:21.699Z,100701.63
2023-02-26T03:27:35.881Z,100703.02
2023-02-26T03:31:46.417Z,100706.67
2023-02-26T03:36:10.719Z,100708.29
2023-02-26T03:40:22.460Z,100711.60
2023-02-26T03:44:32.856Z,100713.04
2023-02-26T03:48:45.188Z,100723.58
2023-02-26T03:52:57.441Z,100730.83
2023-02-26T03:57:09.083Z,100741.35
2023-02-26T04:01:22.924Z,100747.83
2023-02-26T04:05:28.418Z,100755.83
2023-02-26T04:09:40.574Z,100762.42
2023-02-26T04:13:47.223Z,100772.69
2023-02-26T04:17:59.782Z,100773.27
2023-02-26T04:22:12.168Z,100777.43
2023-02-26T04:26:24.933Z,100789.55
2023-02-26T04:30:38.071Z,100789.80
2023-02-26T04:34:59.050Z,100797.83
2023-02-26T04:39:11.247Z,100808.71
2023-02-26T04:43:23.517Z,100815.19
2023-02-26T04:47:34.053Z,100830.13
2023-02-26T04:51:46.394Z,100831.55
2023-02-26T04:55:58.693Z,100837.95
2023-02-26T05:00:10.969Z,100843.64
2023-02-26T05:04:23.017Z,100850.14
2023-02-26T05:08:35.340Z,100860.67
2023-02-26T05:12:43.655Z,100859.80
2023-02-26T05:17:09.428Z,100872.39
2023-02-26T05:21:21.699Z,100876.61
2023-02-26T05:25:33.337Z,100887.92
2023-02-26T05:29:45.600Z,100885.27
2023-02-26T05:34:11.703Z,100892.92
2023-02-26T05:38:23.814Z,100904.50
2023-02-26T05:42:35.808Z,100911.27
2023-02-26T05:46:46.744Z,100910.65
2023-02-26T05:50:58.561Z,100928.98
2023-02-26T05:55:10.770Z,100940.77
2023-02-26T05:59:22.973Z,100951.64
2023-02-26T06:03:35.712Z,100959.52
2023-02-26T06:07:47.842Z,100968.93
2023-02-26T06:12:00.158Z,100976.17
2023-02-26T06:16:12.376Z,100983.37
2023-02-26T06:20:24.656Z,100987.35
2023-02-26T06:24:36.582Z,100999.70
2023-02-26T06:29:02.256Z,100999.44
2023-02-26T06:33:15.215Z,101003.45
2023-02-26T06:37:24.072Z,101004.88
2023-02-26T06:41:36.038Z,101023.55
2023-02-26T06:45:49.004Z,101034.83
2023-02-26T06:50:01.152Z,101036.45
2023-02-26T06:54:13.834Z,101046.77
2023-02-26T06:58:26.299Z,101053.98
2023-02-26T07:02:33.241Z,101053.40
2023-02-26T07:06:38.325Z,101061.16
2023-02-26T07:10:59.208Z,101070.58
2023-02-26T07:15:06.531Z,101078.45
2023-02-26T07:19:18.937Z,101085.43
2023-02-26T07:23:32.058Z,101100.36
2023-02-26T07:27:45.959Z,101109.96
2023-02-26T07:31:58.222Z,101121.54
2023-02-26T07:36:11.736Z,101131.27
2023-02-26T07:40:23.987Z,101143.20
2023-02-26T07:44:49.880Z,101152.45
2023-02-26T07:49:02.425Z,101157.82
2023-02-26T07:53:14.710Z,101163.02
2023-02-26T07:57:26.967Z,101168.66
2023-02-26T08:01:39.607Z,101180.34
2023-02-26T08:05:52.893Z,101192.76
2023-02-26T08:10:04.165Z,101192.41
2023-02-26T08:14:16.716Z,101197.51
2023-02-26T08:18:29.226Z,101199.63
2023-02-26T08:22:49.721Z,101211.86
2023-02-26T08:27:02.274Z,101219.96
2023-02-26T08:31:14.751Z,101219.39
2023-02-26T08:35:30.034Z,101227.80
2023-02-26T08:39:41.915Z,101227.52
2023-02-26T08:44:08.050Z,101232.56
2023-02-26T08:48:20.549Z,101236.86
2023-02-26T08:52:33.290Z,101243.19
2023-02-26T08:56:45.830Z,101251.07
2023-02-26T09:01:11.948Z,101259.91
2023-02-26T09:05:31.131Z,101267.92
2023-02-26T09:09:43.769Z,101267.94
2023-02-26T09:13:56.420Z,101278.94
2023-02-26T09:18:08.771Z,101285.23
2023-02-26T09:22:21.273Z,101286.48
2023-02-26T09:26:33.331Z,101298.64
2023-02-26T09:30:37.694Z,101305.38
2023-02-26T09:34:49.978Z,101316.33
2023-02-26T09:39:02.032Z,101323.75
2023-02-26T09:43:14.355Z,101334.00
2023-02-26T09:47:25.116Z,101336.01
2023-02-26T09:51:38.563Z,101341.30
2023-02-26T09:56:05.231Z,101350.83
2023-02-26T10:00:18.616Z,101361.64
2023-02-26T10:04:29.774Z,101366.28
2023-02-26T10:09:04.796Z,101378.97
2023-02-26T10:18:57.233Z,101393.24
2023-02-26T10:23:12.479Z,101401.40
2023-02-26T10:27:24.580Z,101407.43
2023-02-26T10:31:37.667Z,101420.02
2023-02-26T10:35:57.808Z,101422.04
2023-02-26T10:40:11.214Z,101428.52
2023-02-26T10:44:29.632Z,101438.30
2023-02-26T10:48:55.808Z,101444.52
2023-02-26T10:53:07.902Z,101448.66
2023-02-26T10:57:20.273Z,101454.41
2023-02-26T11:01:32.809Z,101459.48
2023-02-26T11:05:45.135Z,101460.80
2023-02-26T11:09:59.820Z,101471.06
2023-02-26T11:14:12.395Z,101473.63
2023-02-26T11:18:24.877Z,101473.17
2023-02-26T11:22:37.347Z,101482.73
2023-02-26T11:27:03.631Z,101486.16
2023-02-26T11:31:18.705Z,101491.27
2023-02-26T11:35:31.217Z,101493.98
2023-02-26T11:39:42.071Z,101499.42
2023-02-26T11:43:47.195Z,101502.49
2023-02-26T11:48:00.990Z,101502.84
2023-02-26T11:52:07.275Z,101509.62
2023-02-26T11:56:19.623Z,101512.66
2023-02-26T12:00:15.850Z,101511.66
2023-02-26T12:04:09.540Z,101524.52
2023-02-26T12:08:21.854Z,101528.69
2023-02-26T12:12:45.621Z,101537.16
2023-02-26T12:17:11.454Z,101546.25
2023-02-26T12:21:22.127Z,101548.67
2023-02-26T12:25:40.611Z,101557.19
2023-02-26T12:29:59.668Z,101557.29
2023-02-26T12:34:14.914Z,101560.89
2023-02-26T12:38:27.312Z,101562.95
2023-02-26T12:42:37.925Z,101564.15
2023-02-26T12:47:01.836Z,101570.60
2023-02-26T12:51:07.101Z,101572.73
2023-02-26T12:55:28.230Z,101576.41
2023-02-26T13:00:01.635Z,101577.30
2023-02-26T13:04:13.115Z,101573.39
2023-02-26T13:08:25.397Z,101575.89
2023-02-26T13:12:40.575Z,101575.77
2023-02-26T13:16:56.993Z,101574.64
2023-02-26T13:21:09.359Z,101585.03
2023-02-26T13:25:41.571Z,101590.14
2023-02-26T13:29:56.933Z,101595.55
2023-02-26T13:34:09.589Z,101595.48
2023-02-26T13:38:21.837Z,101590.16
2023-02-26T13:42:32.836Z,101593.94
2023-02-26T13:46:56.623Z,101597.60
2023-02-26T13:51:11.973Z,101615.12
2023-02-26T13:55:24.482Z,101610.88
2023-02-26T13:59:34.904Z,101614.70
2023-02-26T14:03:56.554Z,101613.98
2023-02-26T14:08:34.751Z,101608.45
2023-02-26T14:13:03.919Z,101608.17
2023-02-26T14:17:16.908Z,101603.85
2023-02-26T14:21:51.416Z,101611.07
2023-02-26T14:26:09.342Z,101615.56
2023-02-26T14:30:21.286Z,101620.48
2023-02-26T14:34:45.964Z,101621.77
2023-02-26T14:39:00.901Z,101629.43
2023-02-26T14:43:19.556Z,101635.56
2023-02-26T14:47:31.832Z,101638.11
2023-02-26T14:51:47.585Z,101632.91
2023-02-26T14:56:03.067Z,101635.61
2023-02-26T15:00:18.212Z,101636.55
2023-02-26T15:04:36.396Z,101645.95
2023-02-26T15:09:12.835Z,101646.67
2023-02-26T15:13:22.731Z,101657.55
2023-02-26T15:17:37.682Z,101656.04
2023-02-26T15:22:01.833Z,101657.06
2023-02-26T15:26:28.307Z,101662.89
2023-02-26T15:30:40.829Z,101666.02
2023-02-26T15:34:47.692Z,101669.05
2023-02-26T15:39:00.136Z,101676.84
2023-02-26T15:43:12.396Z,101671.98
2023-02-26T15:47:24.419Z,101678.45
2023-02-26T15:51:27.601Z,101684.98
2023-02-26T15:55:39.550Z,101690.23
2023-02-26T15:59:51.676Z,101699.15
2023-02-26T16:04:06.600Z,101697.64
2023-02-26T16:08:18.818Z,101704.91
2023-02-26T16:12:24.336Z,101721.87
2023-02-26T16:16:30.313Z,101736.41
2023-02-26T16:20:45.466Z,101743.92
2023-02-26T16:24:57.725Z,101730.30
2023-02-26T16:29:12.576Z,101732.55
2023-02-26T16:33:24.720Z,101729.83
2023-02-26T16:37:38.146Z,101726.80
2023-02-26T16:41:50.238Z,101730.36
2023-02-26T16:46:00.861Z,101733.88
2023-02-26T16:50:27.184Z,101742.89
2023-02-26T16:54:58.668Z,101746.25
2023-02-26T16:59:11.161Z,101751.51
2023-02-26T17:03:23.126Z,101758.91
2023-02-26T17:07:36.816Z,101758.98
2023-02-26T17:11:49.288Z,101763.02
2023-02-26T17:16:01.852Z,101767.46
2023-02-26T17:20:13.956Z,101778.16
2023-02-26T17:24:26.290Z,101783.83
2023-02-26T17:28:38.512Z,101781.11
2023-02-26T17:33:05.682Z,101793.65
2023-02-26T17:37:10.873Z,101793.88
2023-02-26T17:41:25.724Z,101802.34
2023-02-26T17:45:52.761Z,101800.64
2023-02-26T17:50:04.330Z,101799.35
2023-02-26T17:54:16.815Z,101809.46
2023-02-26T17:58:42.741Z,101806.73
2023-02-26T18:03:09.018Z,101810.62
2023-02-26T18:07:20.926Z,101811.60
2023-02-26T18:11:33.223Z,101811.58
2023-02-26T18:15:45.217Z,101812.70
2023-02-26T18:19:58.618Z,101814.00
2023-02-26T18:24:10.838Z,101817.64
2023-02-26T18:28:22.835Z,101823.05
2023-02-26T18:32:34.953Z,101824.90
2023-02-26T18:36:46.988Z,101837.64
2023-02-26T18:40:58.983Z,101853.83
2023-02-26T18:45:25.168Z,101851.25
2023-02-26T18:49:37.477Z,101854.58
2023-02-26T18:53:50.208Z,101857.48
2023-02-26T18:58:02.626Z,101860.04
2023-02-26T19:02:15.677Z,101853.09
2023-02-26T19:06:28.020Z,101863.77
2023-02-26T19:10:38.654Z,101864.20
2023-02-26T19:14:51.444Z,101867.49
2023-02-26T19:19:03.798Z,101873.75
2023-02-26T19:23:16.392Z,101877.48
2023-02-26T19:27:29.382Z,101886.80
2023-02-26T19:31:41.582Z,101881.63
2023-02-26T19:35:54.160Z,101880.92
2023-02-26T19:40:06.907Z,101890.69
2023-02-26T19:44:19.974Z,101897.15
2023-02-26T19:48:32.586Z,101902.59
2023-02-26T19:52:44.580Z,101908.83
2023-02-26T19:56:56.977Z,101911.40
2023-02-26T20:01:09.182Z,101911.01
2023-02-26T20:05:21.671Z,101923.88
2023-02-26T20:09:33.555Z,101930.95
2023-02-26T20:13:59.924Z,101934.17
2023-02-26T20:18:12.781Z,101944.19
2023-02-26T20:22:25.457Z,101947.66
2023-02-26T20:26:37.862Z,101959.34
2023-02-26T20:30:50.708Z,101951.06
2023-02-26T20:34:56.255Z,101946.14
2023-02-26T20:39:09.051Z,101945.27
2023-02-26T20:43:35.270Z,101946.41
2023-02-26T20:47:48.014Z,101958.29
2023-02-26T20:52:00.248Z,101966.27
2023-02-26T20:56:12.608Z,101964.97
2023-02-26T21:00:24.689Z,101972.09
2023-02-26T21:04:30.674Z,101980.17
2023-02-26T21:08:42.846Z,101988.52
2023-02-26T21:12:45.538Z,101987.55
2023-02-26T21:16:57.936Z,101987.81
2023-02-26T21:21:02.296Z,101985.65
2023-02-26T21:25:09.351Z,101984.98
2023-02-26T21:29:21.374Z,101987.92
2023-02-26T21:33:52.293Z,101993.82
2023-02-26T21:38:03.626Z,101993.72
2023-02-26T21:42:24.105Z,102001.60
2023-02-26T21:46:36.396Z,102013.06
2023-02-26T21:50:48.677Z,102017.09
2023-02-26T21:55:00.991Z,102021.81
2023-02-26T21:59:13.219Z,102020.13
2023-02-26T22:03:44.507Z,102018.37
2023-02-26T22:07:56.415Z,102028.34
2023-02-26T22:12:09.244Z,102034.39
2023-02-26T22:16:19.507Z,102040.02
2023-02-26T22:20:32.511Z,102043.73
2023-02-26T22:24:45.390Z,102051.27
2023-02-26T22:29:11.434Z,102054.94
2023-02-26T22:33:24.307Z,102056.98
2023-02-26T22:37:36.357Z,102062.16
2023-02-26T22:41:49.069Z,102063.19
2023-02-26T22:46:01.165Z,102069.40
2023-02-26T22:50:08.349Z,102071.11
2023-02-26T22:54:20.737Z,102080.73
2023-02-26T22:58:27.388Z,102098.02
2023-02-26T23:02:39.479Z,102104.65
2023-02-26T23:07:05.706Z,102108.70
2023-02-26T23:11:16.394Z,102103.20
2023-02-26T23:15:23.399Z,102106.80
2023-02-26T23:19:35.799Z,102112.30
2023-02-26T23:23:48.520Z,102102.90
2023-02-26T23:28:01.625Z,102099.77
2023-02-26T23:32:14.595Z,102100.02
2023-02-26T23:36:27.654Z,102110.30
2023-02-26T23:40:39.577Z,102118.35
2023-02-26T23:44:51.978Z,102124.54
2023-02-26T23:49:03.600Z,102131.86
2023-02-26T23:53:10.539Z,102131.42
2023-02-26T23:57:22.653Z,102133.09
